sensor_id;sensor_type;location;lat;lon;timestamp;pressure;altitude;pressure_sealevel;temperature;humidity
15674;BME280;7937;48.090;16.212;2023-02-15T00:03:01;99366.16;;;3.24;68.17
15674;BME280;7937;48.090;16.212;2023-02-15T00:06:04;99365.03;;;3.27;68.08
15674;BME280;7937;48.090;16.212;2023-02-15T00:09:06;99370.13;;;3.28;67.81
15674;BME280;7937;48.090;16.212;2023-02-15T00:12:09;99364.03;;;3.28;67.87
15674;BME280;7937;48.090;16.212;2023-02-15T00:15:11;99361.88;;;3.23;68.20
15674;BME280;7937;48.090;16.212;2023-02-15T00:18:14;99356.94;;;3.20;68.40
15674;BME280;7937;48.090;16.212;2023-02-15T00:21:16;99363.00;;;3.21;68.86
15674;BME280;7937;48.090;16.212;2023-02-15T00:24:19;99361.66;;;3.17;68.28
15674;BME280;7937;48.090;16.212;2023-02-15T00:27:21;99366.94;;;3.17;68.40
15674;BME280;7937;48.090;16.212;2023-02-15T00:30:23;99370.38;;;3.17;68.26
15674;BME280;7937;48.090;16.212;2023-02-15T00:33:25;99362.47;;;3.17;68.18
15674;BME280;7937;48.090;16.212;2023-02-15T00:36:27;99365.94;;;3.00;68.58
15674;BME280;7937;48.090;16.212;2023-02-15T00:39:29;99363.84;;;2.85;68.91
15674;BME280;7937;48.090;16.212;2023-02-15T00:42:32;99363.34;;;2.82;68.60
15674;BME280;7937;48.090;16.212;2023-02-15T00:45:34;99370.69;;;2.78;68.47
15674;BME280;7937;48.090;16.212;2023-02-15T00:48:36;99362.53;;;2.81;68.83
15674;BME280;7937;48.090;16.212;2023-02-15T00:51:38;99357.56;;;2.78;68.79
15674;BME280;7937;48.090;16.212;2023-02-15T00:54:41;99356.13;;;2.84;68.77
15674;BME280;7937;48.090;16.212;2023-02-15T00:57:43;99349.41;;;2.90;68.48
15674;BME280;7937;48.090;16.212;2023-02-15T01:00:46;99316.50;;;2.68;68.29
15674;BME280;7937;48.090;16.212;2023-02-15T01:03:49;99281.56;;;2.57;68.39
15674;BME280;7937;48.090;16.212;2023-02-15T01:06:51;99347.59;;;2.90;68.40
15674;BME280;7937;48.090;16.212;2023-02-15T01:09:52;99333.31;;;2.93;68.46
15674;BME280;7937;48.090;16.212;2023-02-15T01:12:55;99297.63;;;2.72;68.34
15674;BME280;7937;48.090;16.212;2023-02-15T01:15:58;99328.28;;;2.99;68.09
15674;BME280;7937;48.090;16.212;2023-02-15T01:19:00;99333.53;;;2.99;68.24
15674;BME280;7937;48.090;16.212;2023-02-15T01:22:05;99227.00;;;2.42;68.32
15674;BME280;7937;48.090;16.212;2023-02-15T01:25:09;99317.28;;;3.04;68.29
15674;BME280;7937;48.090;16.212;2023-02-15T01:28:11;99280.41;;;2.78;67.95
15674;BME280;7937;48.090;16.212;2023-02-15T01:31:15;99317.09;;;2.97;68.09
15674;BME280;7937;48.090;16.212;2023-02-15T01:34:19;99279.88;;;2.74;68.16
15674;BME280;7937;48.090;16.212;2023-02-15T01:37:21;99281.03;;;2.72;67.92
15674;BME280;7937;48.090;16.212;2023-02-15T01:40:24;99310.91;;;2.89;67.92
15674;BME280;7937;48.090;16.212;2023-02-15T01:43:43;99303.56;;;2.92;67.99
15674;BME280;7937;48.090;16.212;2023-02-15T01:46:51;99306.03;;;2.94;67.97
15674;BME280;7937;48.090;16.212;2023-02-15T01:53:48;99300.31;;;2.80;68.32
15674;BME280;7937;48.090;16.212;2023-02-15T01:56:48;99300.81;;;2.76;68.34
15674;BME280;7937;48.090;16.212;2023-02-15T01:59:55;99293.84;;;2.75;68.67
15674;BME280;7937;48.090;16.212;2023-02-15T02:02:58;99294.69;;;2.75;68.54
15674;BME280;7937;48.090;16.212;2023-02-15T02:06:00;99287.78;;;2.74;68.57
15674;BME280;7937;48.090;16.212;2023-02-15T02:09:03;99281.31;;;2.69;68.82
15674;BME280;7937;48.090;16.212;2023-02-15T02:12:06;99286.94;;;2.74;68.98
15674;BME280;7937;48.090;16.212;2023-02-15T02:15:09;99288.59;;;2.75;69.05
15674;BME280;7937;48.090;16.212;2023-02-15T02:18:32;99282.38;;;2.76;69.05
15674;BME280;7937;48.090;16.212;2023-02-15T02:31:55;99263.44;;;2.72;68.33
15674;BME280;7937;48.090;16.212;2023-02-15T02:42:06;99264.03;;;2.66;68.53
15674;BME280;7937;48.090;16.212;2023-02-15T02:49:02;99251.56;;;2.50;69.52
15674;BME280;7937;48.090;16.212;2023-02-15T02:52:53;99253.75;;;2.55;69.54
15674;BME280;7937;48.090;16.212;2023-02-15T02:55:44;99245.25;;;2.61;69.45
15674;BME280;7937;48.090;16.212;2023-02-15T02:58:58;99243.44;;;2.62;69.21
15674;BME280;7937;48.090;16.212;2023-02-15T03:02:12;99244.56;;;2.59;69.37
15674;BME280;7937;48.090;16.212;2023-02-15T03:05:19;99244.03;;;2.55;69.32
15674;BME280;7937;48.090;16.212;2023-02-15T03:08:25;99238.94;;;2.54;69.77
15674;BME280;7937;48.090;16.212;2023-02-15T03:11:29;99234.34;;;2.56;69.90
15674;BME280;7937;48.090;16.212;2023-02-15T03:14:32;99233.38;;;2.57;69.70
15674;BME280;7937;48.090;16.212;2023-02-15T03:17:39;99238.47;;;2.58;69.79
15674;BME280;7937;48.090;16.212;2023-02-15T03:20:43;99234.41;;;2.64;69.56
15674;BME280;7937;48.090;16.212;2023-02-15T03:23:54;99230.66;;;2.67;69.50
15674;BME280;7937;48.090;16.212;2023-02-15T03:27:03;99233.59;;;2.64;69.14
15674;BME280;7937;48.090;16.212;2023-02-15T03:30:09;99235.22;;;2.65;69.19
15674;BME280;7937;48.090;16.212;2023-02-15T03:33:13;99235.41;;;2.63;69.26
15674;BME280;7937;48.090;16.212;2023-02-15T03:36:24;99231.63;;;2.66;69.32
15674;BME280;7937;48.090;16.212;2023-02-15T03:39:38;99235.94;;;2.67;69.64
15674;BME280;7937;48.090;16.212;2023-02-15T03:42:43;99237.56;;;2.68;69.51
15674;BME280;7937;48.090;16.212;2023-02-15T03:45:51;99238.09;;;2.71;69.36
15674;BME280;7937;48.090;16.212;2023-02-15T03:49:04;99239.06;;;2.70;69.18
15674;BME280;7937;48.090;16.212;2023-02-15T03:52:10;99237.94;;;2.73;69.47
15674;BME280;7937;48.090;16.212;2023-02-15T03:55:13;99238.47;;;2.76;69.31
15674;BME280;7937;48.090;16.212;2023-02-15T03:58:15;99200.47;;;2.53;69.21
15674;BME280;7937;48.090;16.212;2023-02-15T04:01:54;99240.56;;;2.73;68.81
15674;BME280;7937;48.090;16.212;2023-02-15T04:05:01;99238.94;;;2.72;68.89
15674;BME280;7937;48.090;16.212;2023-02-15T04:08:03;99227.03;;;2.68;68.99
15674;BME280;7937;48.090;16.212;2023-02-15T04:11:05;99230.69;;;2.75;69.04
15674;BME280;7937;48.090;16.212;2023-02-15T04:14:07;99233.19;;;2.76;68.87
15674;BME280;7937;48.090;16.212;2023-02-15T04:17:27;99223.88;;;2.64;69.26
15674;BME280;7937;48.090;16.212;2023-02-15T04:20:30;99229.31;;;2.63;69.46
15674;BME280;7937;48.090;16.212;2023-02-15T04:23:50;99229.97;;;2.65;69.49
15674;BME280;7937;48.090;16.212;2023-02-15T04:27:11;99225.03;;;2.62;69.42
15674;BME280;7937;48.090;16.212;2023-02-15T04:30:15;99237.22;;;2.63;69.53
15674;BME280;7937;48.090;16.212;2023-02-15T04:33:17;99223.88;;;2.64;69.76
15674;BME280;7937;48.090;16.212;2023-02-15T04:36:19;99214.88;;;2.67;69.73
15674;BME280;7937;48.090;16.212;2023-02-15T04:39:21;99222.44;;;2.70;69.69
15674;BME280;7937;48.090;16.212;2023-02-15T04:42:23;99219.31;;;2.66;69.52
15674;BME280;7937;48.090;16.212;2023-02-15T04:45:25;99220.28;;;2.65;69.60
15674;BME280;7937;48.090;16.212;2023-02-15T04:48:28;99219.78;;;2.62;69.93
15674;BME280;7937;48.090;16.212;2023-02-15T04:51:30;99220.22;;;2.57;69.70
15674;BME280;7937;48.090;16.212;2023-02-15T04:54:32;99219.53;;;2.55;70.16
15674;BME280;7937;48.090;16.212;2023-02-15T04:57:34;99224.81;;;2.55;70.31
15674;BME280;7937;48.090;16.212;2023-02-15T05:00:36;99227.75;;;2.52;70.21
15674;BME280;7937;48.090;16.212;2023-02-15T05:03:38;99230.22;;;2.53;70.32
15674;BME280;7937;48.090;16.212;2023-02-15T05:06:40;99224.31;;;2.51;70.38
15674;BME280;7937;48.090;16.212;2023-02-15T05:09:42;99222.63;;;2.50;70.52
15674;BME280;7937;48.090;16.212;2023-02-15T05:12:44;99223.31;;;2.52;70.39
15674;BME280;7937;48.090;16.212;2023-02-15T05:15:48;99217.91;;;2.54;70.39
15674;BME280;7937;48.090;16.212;2023-02-15T05:18:50;99208.97;;;2.47;70.33
15674;BME280;7937;48.090;16.212;2023-02-15T05:21:52;99223.97;;;2.54;70.43
15674;BME280;7937;48.090;16.212;2023-02-15T05:24:54;99219.69;;;2.53;70.62
15674;BME280;7937;48.090;16.212;2023-02-15T05:28:15;99230.06;;;2.55;70.41
15674;BME280;7937;48.090;16.212;2023-02-15T05:31:23;99224.81;;;2.55;70.29
15674;BME280;7937;48.090;16.212;2023-02-15T05:34:26;99225.63;;;2.55;70.36
15674;BME280;7937;48.090;16.212;2023-02-15T05:37:28;99225.34;;;2.58;70.40
15674;BME280;7937;48.090;16.212;2023-02-15T05:40:30;99232.09;;;2.61;70.28
15674;BME280;7937;48.090;16.212;2023-02-15T05:43:32;99229.31;;;2.63;70.24
15674;BME280;7937;48.090;16.212;2023-02-15T05:46:34;99230.97;;;2.64;70.61
15674;BME280;7937;48.090;16.212;2023-02-15T05:49:36;99234.41;;;2.64;70.53
15674;BME280;7937;48.090;16.212;2023-02-15T05:52:38;99233.75;;;2.62;70.18
15674;BME280;7937;48.090;16.212;2023-02-15T05:55:40;99207.16;;;2.47;69.91
15674;BME280;7937;48.090;16.212;2023-02-15T05:58:42;99229.06;;;2.56;70.03
15674;BME280;7937;48.090;16.212;2023-02-15T06:01:44;99231.03;;;2.54;70.04
15674;BME280;7937;48.090;16.212;2023-02-15T06:04:47;99239.09;;;2.52;70.14
15674;BME280;7937;48.090;16.212;2023-02-15T06:07:48;99181.94;;;2.19;70.02
15674;BME280;7937;48.090;16.212;2023-02-15T06:10:50;99201.09;;;2.29;69.60
15674;BME280;7937;48.090;16.212;2023-02-15T06:13:52;99241.41;;;2.55;70.09
15674;BME280;7937;48.090;16.212;2023-02-15T06:16:54;99246.53;;;2.57;70.04
15674;BME280;7937;48.090;16.212;2023-02-15T06:19:56;99239.31;;;2.59;69.85
15674;BME280;7937;48.090;16.212;2023-02-15T06:22:58;99247.19;;;2.59;69.65
15674;BME280;7937;48.090;16.212;2023-02-15T06:26:00;99254.94;;;2.61;69.75
15674;BME280;7937;48.090;16.212;2023-02-15T06:29:03;99248.38;;;2.65;69.68
15674;BME280;7937;48.090;16.212;2023-02-15T06:32:05;99253.28;;;2.59;69.31
15674;BME280;7937;48.090;16.212;2023-02-15T06:35:08;99261.50;;;2.56;69.22
15674;BME280;7937;48.090;16.212;2023-02-15T06:38:11;99253.59;;;2.56;69.07
15674;BME280;7937;48.090;16.212;2023-02-15T06:41:13;99256.72;;;2.60;69.44
15674;BME280;7937;48.090;16.212;2023-02-15T06:44:15;99260.06;;;2.62;69.31
15674;BME280;7937;48.090;16.212;2023-02-15T06:47:17;99252.66;;;2.66;69.30
15674;BME280;7937;48.090;16.212;2023-02-15T06:50:19;99250.72;;;2.68;68.83
15674;BME280;7937;48.090;16.212;2023-02-15T06:53:21;99245.75;;;2.65;69.12
15674;BME280;7937;48.090;16.212;2023-02-15T06:56:23;99246.44;;;2.67;69.26
15674;BME280;7937;48.090;16.212;2023-02-15T06:59:25;99236.84;;;2.57;68.82
15674;BME280;7937;48.090;16.212;2023-02-15T07:02:27;99246.53;;;2.57;68.52
15674;BME280;7937;48.090;16.212;2023-02-15T07:05:33;99214.44;;;2.36;68.87
15674;BME280;7937;48.090;16.212;2023-02-15T07:08:36;99232.56;;;2.56;69.00
15674;BME280;7937;48.090;16.212;2023-02-15T07:11:38;99235.84;;;2.58;68.63
15674;BME280;7937;48.090;16.212;2023-02-15T07:14:59;99229.78;;;2.58;69.13
15674;BME280;7937;48.090;16.212;2023-02-15T07:18:01;99235.69;;;2.60;69.10
15674;BME280;7937;48.090;16.212;2023-02-15T07:21:03;99235.75;;;2.68;68.82
15674;BME280;7937;48.090;16.212;2023-02-15T07:24:06;99225.31;;;2.76;68.62
15674;BME280;7937;48.090;16.212;2023-02-15T07:27:08;99232.88;;;2.79;68.21
15674;BME280;7937;48.090;16.212;2023-02-15T07:30:12;99227.16;;;2.84;68.56
15674;BME280;7937;48.090;16.212;2023-02-15T07:33:14;99230.50;;;2.68;68.59
15674;BME280;7937;48.090;16.212;2023-02-15T07:36:25;99227.94;;;2.76;68.67
15674;BME280;7937;48.090;16.212;2023-02-15T07:39:27;99231.53;;;2.75;68.24
15674;BME280;7937;48.090;16.212;2023-02-15T07:42:30;99232.84;;;2.71;68.10
15674;BME280;7937;48.090;16.212;2023-02-15T07:45:32;99230.88;;;2.73;68.23
15674;BME280;7937;48.090;16.212;2023-02-15T07:48:35;99238.13;;;2.79;67.81
15674;BME280;7937;48.090;16.212;2023-02-15T07:51:37;99239.19;;;2.87;67.72
15674;BME280;7937;48.090;16.212;2023-02-15T07:54:40;99233.47;;;2.91;67.61
15674;BME280;7937;48.090;16.212;2023-02-15T07:57:45;99243.09;;;2.82;67.77
15674;BME280;7937;48.090;16.212;2023-02-15T08:00:47;99232.94;;;2.88;67.87
15674;BME280;7937;48.090;16.212;2023-02-15T08:03:58;99214.56;;;2.70;67.54
15674;BME280;7937;48.090;16.212;2023-02-15T08:07:00;99237.22;;;2.89;67.87
15674;BME280;7937;48.090;16.212;2023-02-15T08:10:03;99232.41;;;2.84;67.81
15674;BME280;7937;48.090;16.212;2023-02-15T08:13:05;99229.16;;;2.90;68.09
15674;BME280;7937;48.090;16.212;2023-02-15T08:16:06;99227.88;;;2.94;67.68
15674;BME280;7937;48.090;16.212;2023-02-15T08:19:21;99237.13;;;2.98;67.67
15674;BME280;7937;48.090;16.212;2023-02-15T08:22:24;99235.69;;;3.04;67.40
15674;BME280;7937;48.090;16.212;2023-02-15T08:25:28;99241.00;;;3.12;67.21
15674;BME280;7937;48.090;16.212;2023-02-15T08:28:30;99244.66;;;3.19;66.89
15674;BME280;7937;48.090;16.212;2023-02-15T08:31:33;99243.69;;;3.20;66.82
15674;BME280;7937;48.090;16.212;2023-02-15T08:34:39;99218.59;;;3.08;66.45
15674;BME280;7937;48.090;16.212;2023-02-15T08:37:41;99236.50;;;3.30;66.07
15674;BME280;7937;48.090;16.212;2023-02-15T08:40:44;99236.81;;;3.27;66.15
15674;BME280;7937;48.090;16.212;2023-02-15T08:43:48;99232.66;;;3.25;65.94
15674;BME280;7937;48.090;16.212;2023-02-15T08:46:52;99229.00;;;3.18;66.00
15674;BME280;7937;48.090;16.212;2023-02-15T08:49:55;99224.31;;;3.03;66.40
15674;BME280;7937;48.090;16.212;2023-02-15T08:52:57;99194.53;;;3.03;66.04
15674;BME280;7937;48.090;16.212;2023-02-15T08:55:59;99230.25;;;3.40;65.96
15674;BME280;7937;48.090;16.212;2023-02-15T08:59:02;99217.09;;;3.40;65.02
15674;BME280;7937;48.090;16.212;2023-02-15T09:02:05;99225.38;;;3.53;65.38
15674;BME280;7937;48.090;16.212;2023-02-15T09:05:07;99227.13;;;3.70;65.24
15674;BME280;7937;48.090;16.212;2023-02-15T09:08:09;99220.56;;;3.82;64.44
15674;BME280;7937;48.090;16.212;2023-02-15T09:11:16;99224.22;;;3.90;64.13
15674;BME280;7937;48.090;16.212;2023-02-15T09:14:23;99219.91;;;3.88;64.21
15674;BME280;7937;48.090;16.212;2023-02-15T09:17:27;99223.88;;;3.93;64.08
15674;BME280;7937;48.090;16.212;2023-02-15T09:20:29;99190.88;;;3.72;63.62
15674;BME280;7937;48.090;16.212;2023-02-15T09:23:31;99223.03;;;3.92;64.11
15674;BME280;7937;48.090;16.212;2023-02-15T09:26:37;99191.53;;;3.66;63.63
15674;BME280;7937;48.090;16.212;2023-02-15T09:29:39;99198.13;;;3.78;63.76
15674;BME280;7937;48.090;16.212;2023-02-15T09:32:41;99219.94;;;3.97;63.67
15674;BME280;7937;48.090;16.212;2023-02-15T09:35:43;99210.41;;;4.12;63.50
15674;BME280;7937;48.090;16.212;2023-02-15T09:38:46;99216.38;;;4.30;63.42
15674;BME280;7937;48.090;16.212;2023-02-15T09:42:06;99210.09;;;4.31;62.92
15674;BME280;7937;48.090;16.212;2023-02-15T09:48:40;99205.31;;;4.43;62.61
15674;BME280;7937;48.090;16.212;2023-02-15T10:01:45;99201.16;;;4.08;63.32
15674;BME280;7937;48.090;16.212;2023-02-15T10:05:13;99196.56;;;4.43;62.91
15674;BME280;7937;48.090;16.212;2023-02-15T10:14:51;99199.00;;;4.93;59.92
15674;BME280;7937;48.090;16.212;2023-02-15T10:18:23;99197.84;;;4.96;59.63
15674;BME280;7937;48.090;16.212;2023-02-15T10:22:04;99198.16;;;5.09;59.23
15674;BME280;7937;48.090;16.212;2023-02-15T10:31:51;99187.00;;;4.74;60.16
15674;BME280;7937;48.090;16.212;2023-02-15T10:35:20;99178.53;;;4.87;60.16
15674;BME280;7937;48.090;16.212;2023-02-15T10:38:42;99185.06;;;5.15;59.56
15674;BME280;7937;48.090;16.212;2023-02-15T10:48:41;99171.53;;;5.18;59.00
15674;BME280;7937;48.090;16.212;2023-02-15T10:55:15;99160.19;;;5.49;58.36
15674;BME280;7937;48.090;16.212;2023-02-15T11:05:02;99143.25;;;5.89;56.94
15674;BME280;7937;48.090;16.212;2023-02-15T11:08:13;99136.50;;;5.87;57.15
15674;BME280;7937;48.090;16.212;2023-02-15T11:11:31;99134.47;;;5.97;56.87
15674;BME280;7937;48.090;16.212;2023-02-15T11:14:52;99128.47;;;6.03;56.88
15674;BME280;7937;48.090;16.212;2023-02-15T11:18:08;99131.53;;;5.92;57.12
15674;BME280;7937;48.090;16.212;2023-02-15T11:21:29;99137.13;;;5.97;57.02
15674;BME280;7937;48.090;16.212;2023-02-15T11:24:40;99135.50;;;5.88;56.75
15674;BME280;7937;48.090;16.212;2023-02-15T11:27:43;99124.56;;;5.68;57.29
15674;BME280;7937;48.090;16.212;2023-02-15T11:30:54;99086.22;;;5.41;57.50
15674;BME280;7937;48.090;16.212;2023-02-15T11:34:03;99123.59;;;5.61;57.48
15674;BME280;7937;48.090;16.212;2023-02-15T11:37:11;99119.91;;;5.70;57.32
15674;BME280;7937;48.090;16.212;2023-02-15T11:40:34;99129.13;;;6.05;57.18
15674;BME280;7937;48.090;16.212;2023-02-15T11:43:43;99127.03;;;6.38;56.53
15674;BME280;7937;48.090;16.212;2023-02-15T11:46:46;99123.69;;;6.59;55.59
15674;BME280;7937;48.090;16.212;2023-02-15T11:49:48;99118.06;;;6.92;54.69
15674;BME280;7937;48.090;16.212;2023-02-15T11:53:00;99119.16;;;6.97;54.35
15674;BME280;7937;48.090;16.212;2023-02-15T11:56:03;99102.88;;;7.15;54.18
15674;BME280;7937;48.090;16.212;2023-02-15T11:59:21;99103.03;;;7.14;54.12
15674;BME280;7937;48.090;16.212;2023-02-15T12:02:26;99104.44;;;7.24;53.49
15674;BME280;7937;48.090;16.212;2023-02-15T12:05:31;99085.53;;;6.83;53.47
15674;BME280;7937;48.090;16.212;2023-02-15T12:08:43;99106.84;;;6.75;54.33
15674;BME280;7937;48.090;16.212;2023-02-15T12:11:47;99104.53;;;6.72;54.69
15674;BME280;7937;48.090;16.212;2023-02-15T12:14:55;99103.91;;;6.85;54.67
15674;BME280;7937;48.090;16.212;2023-02-15T12:17:57;99047.00;;;6.66;53.96
15674;BME280;7937;48.090;16.212;2023-02-15T12:21:02;99105.59;;;7.22;53.53
15674;BME280;7937;48.090;16.212;2023-02-15T12:24:20;99098.13;;;7.11;53.87
15674;BME280;7937;48.090;16.212;2023-02-15T12:27:34;99086.06;;;7.08;53.84
15674;BME280;7937;48.090;16.212;2023-02-15T12:30:37;99081.41;;;7.25;53.96
15674;BME280;7937;48.090;16.212;2023-02-15T12:33:41;99088.25;;;7.34;53.22
15674;BME280;7937;48.090;16.212;2023-02-15T12:36:49;99053.00;;;7.04;53.21
15674;BME280;7937;48.090;16.212;2023-02-15T12:40:00;99078.75;;;7.25;53.23
15674;BME280;7937;48.090;16.212;2023-02-15T12:43:04;99070.56;;;7.05;53.27
15674;BME280;7937;48.090;16.212;2023-02-15T12:46:23;99073.84;;;6.63;54.63
15674;BME280;7937;48.090;16.212;2023-02-15T12:49:27;99068.34;;;6.35;55.70
15674;BME280;7937;48.090;16.212;2023-02-15T12:52:30;99071.44;;;6.38;55.74
15674;BME280;7937;48.090;16.212;2023-02-15T12:55:32;99047.72;;;6.45;55.44
15674;BME280;7937;48.090;16.212;2023-02-15T12:58:38;99068.75;;;6.61;55.38
15674;BME280;7937;48.090;16.212;2023-02-15T13:01:42;99064.78;;;6.42;55.79
15674;BME280;7937;48.090;16.212;2023-02-15T13:04:48;99058.47;;;6.29;55.81
15674;BME280;7937;48.090;16.212;2023-02-15T13:07:57;99007.97;;;6.01;55.67
15674;BME280;7937;48.090;16.212;2023-02-15T13:11:06;99053.38;;;6.42;55.44
15674;BME280;7937;48.090;16.212;2023-02-15T13:14:33;99049.25;;;6.39;55.46
15674;BME280;7937;48.090;16.212;2023-02-15T13:17:35;99050.56;;;6.43;55.37
15674;BME280;7937;48.090;16.212;2023-02-15T13:20:38;99048.81;;;6.36;55.87
15674;BME280;7937;48.090;16.212;2023-02-15T13:23:46;99045.06;;;6.30;55.99
15674;BME280;7937;48.090;16.212;2023-02-15T13:26:52;99040.31;;;6.26;56.48
15674;BME280;7937;48.090;16.212;2023-02-15T13:30:16;99036.28;;;6.15;56.22
15674;BME280;7937;48.090;16.212;2023-02-15T13:33:36;99005.94;;;5.65;57.25
15674;BME280;7937;48.090;16.212;2023-02-15T13:43:30;99026.47;;;6.01;57.16
15674;BME280;7937;48.090;16.212;2023-02-15T13:46:48;98998.31;;;5.47;57.65
15674;BME280;7937;48.090;16.212;2023-02-15T13:57:22;99031.06;;;5.84;58.01
15674;BME280;7937;48.090;16.212;2023-02-15T14:00:39;99020.28;;;5.93;57.69
15674;BME280;7937;48.090;16.212;2023-02-15T14:10:43;99023.84;;;6.01;57.48
15674;BME280;7937;48.090;16.212;2023-02-15T14:17:34;99009.69;;;5.70;58.16
15674;BME280;7937;48.090;16.212;2023-02-15T14:23:58;99015.28;;;5.53;59.05
15674;BME280;7937;48.090;16.212;2023-02-15T14:27:19;99028.78;;;5.35;59.49
15674;BME280;7937;48.090;16.212;2023-02-15T14:30:36;99009.50;;;5.26;59.84
15674;BME280;7937;48.090;16.212;2023-02-15T14:33:40;98975.31;;;5.02;60.09
15674;BME280;7937;48.090;16.212;2023-02-15T14:36:44;99016.28;;;5.29;59.95
15674;BME280;7937;48.090;16.212;2023-02-15T14:40:02;99019.75;;;5.29;59.94
15674;BME280;7937;48.090;16.212;2023-02-15T14:43:47;99009.16;;;5.29;59.97
15674;BME280;7937;48.090;16.212;2023-02-15T14:47:09;99007.59;;;5.12;60.52
15674;BME280;7937;48.090;16.212;2023-02-15T14:53:36;99003.94;;;4.90;61.41
15674;BME280;7937;48.090;16.212;2023-02-15T14:56:40;99000.19;;;4.84;61.71
15674;BME280;7937;48.090;16.212;2023-02-15T14:59:52;98967.78;;;4.59;61.90
15674;BME280;7937;48.090;16.212;2023-02-15T15:02:59;98998.91;;;4.72;61.94
15674;BME280;7937;48.090;16.212;2023-02-15T15:06:03;98994.66;;;4.63;62.45
15674;BME280;7937;48.090;16.212;2023-02-15T15:09:25;98992.19;;;4.61;62.31
15674;BME280;7937;48.090;16.212;2023-02-15T15:15:52;98995.53;;;4.47;62.44
15674;BME280;7937;48.090;16.212;2023-02-15T15:18:55;98985.34;;;4.36;63.00
15674;BME280;7937;48.090;16.212;2023-02-15T15:22:03;98983.75;;;4.19;63.49
15674;BME280;7937;48.090;16.212;2023-02-15T15:25:10;98985.09;;;4.06;63.94
15674;BME280;7937;48.090;16.212;2023-02-15T15:31:44;98987.09;;;3.88;64.28
15674;BME280;7937;48.090;16.212;2023-02-15T15:41:47;98983.34;;;3.58;64.90
15674;BME280;7937;48.090;16.212;2023-02-15T15:51:30;98990.66;;;2.89;66.33
15674;BME280;7937;48.090;16.212;2023-02-15T15:54:33;98985.03;;;2.84;66.55
15674;BME280;7937;48.090;16.212;2023-02-15T15:57:41;98980.56;;;2.68;66.62
15674;BME280;7937;48.090;16.212;2023-02-15T16:00:48;98988.22;;;2.53;66.89
15674;BME280;7937;48.090;16.212;2023-02-15T16:03:55;98982.44;;;2.42;67.43
15674;BME280;7937;48.090;16.212;2023-02-15T16:10:27;98984.25;;;2.15;67.28
15674;BME280;7937;48.090;16.212;2023-02-15T16:13:30;98986.47;;;2.02;67.32
15674;BME280;7937;48.090;16.212;2023-02-15T16:16:33;98969.69;;;1.69;67.68
15674;BME280;7937;48.090;16.212;2023-02-15T16:19:38;98980.31;;;1.67;67.77
15674;BME280;7937;48.090;16.212;2023-02-15T16:22:42;98991.03;;;1.48;68.37
15674;BME280;7937;48.090;16.212;2023-02-15T16:29:17;98987.50;;;1.21;68.65
15674;BME280;7937;48.090;16.212;2023-02-15T16:32:27;98986.38;;;1.06;68.96
15674;BME280;7937;48.090;16.212;2023-02-15T16:35:30;98993.47;;;0.96;69.12
15674;BME280;7937;48.090;16.212;2023-02-15T16:41:46;98999.97;;;0.74;69.40
15674;BME280;7937;48.090;16.212;2023-02-15T16:45:07;98990.22;;;0.66;69.61
15674;BME280;7937;48.090;16.212;2023-02-15T16:48:21;98998.56;;;0.52;70.22
15674;BME280;7937;48.090;16.212;2023-02-15T16:51:29;98987.56;;;0.39;70.33
15674;BME280;7937;48.090;16.212;2023-02-15T16:54:35;98972.06;;;0.18;70.56
15674;BME280;7937;48.090;16.212;2023-02-15T16:57:42;98992.19;;;0.27;70.68
15674;BME280;7937;48.090;16.212;2023-02-15T17:00:45;98985.56;;;0.23;70.75
15674;BME280;7937;48.090;16.212;2023-02-15T17:03:51;98987.81;;;0.08;70.93
15674;BME280;7937;48.090;16.212;2023-02-15T17:07:19;98984.38;;;0.08;71.24
15674;BME280;7937;48.090;16.212;2023-02-15T17:10:35;98950.81;;;-0.16;70.89
15674;BME280;7937;48.090;16.212;2023-02-15T17:13:39;98979.72;;;0.02;71.07
15674;BME280;7937;48.090;16.212;2023-02-15T17:16:53;98993.41;;;-0.05;71.25
15674;BME280;7937;48.090;16.212;2023-02-15T17:20:01;98991.75;;;-0.15;71.60
15674;BME280;7937;48.090;16.212;2023-02-15T17:23:04;98949.22;;;-0.46;71.90
15674;BME280;7937;48.090;16.212;2023-02-15T17:26:23;98987.91;;;-0.21;71.38
15674;BME280;7937;48.090;16.212;2023-02-15T17:29:34;98986.41;;;-0.23;71.45
15674;BME280;7937;48.090;16.212;2023-02-15T17:32:55;98949.09;;;-0.55;71.55
15674;BME280;7937;48.090;16.212;2023-02-15T17:36:08;98996.47;;;-0.29;71.60
15674;BME280;7937;48.090;16.212;2023-02-15T17:39:20;98993.03;;;-0.39;71.48
15674;BME280;7937;48.090;16.212;2023-02-15T17:42:26;98999.53;;;-0.43;71.63
15674;BME280;7937;48.090;16.212;2023-02-15T17:45:40;98993.47;;;-0.53;72.25
15674;BME280;7937;48.090;16.212;2023-02-15T17:48:51;99000.91;;;-0.48;72.16
15674;BME280;7937;48.090;16.212;2023-02-15T17:51:57;98993.06;;;-0.48;71.82
15674;BME280;7937;48.090;16.212;2023-02-15T17:55:07;98990.69;;;-0.52;72.04
15674;BME280;7937;48.090;16.212;2023-02-15T17:58:34;98991.81;;;-0.54;71.89
15674;BME280;7937;48.090;16.212;2023-02-15T18:01:46;98989.63;;;-0.59;72.11
15674;BME280;7937;48.090;16.212;2023-02-15T18:05:13;98946.09;;;-0.89;72.12
15674;BME280;7937;48.090;16.212;2023-02-15T18:08:34;98992.34;;;-0.60;72.06
15674;BME280;7937;48.090;16.212;2023-02-15T18:11:57;98991.69;;;-0.62;72.00
15674;BME280;7937;48.090;16.212;2023-02-15T18:15:01;98993.06;;;-0.68;72.22
15674;BME280;7937;48.090;16.212;2023-02-15T18:18:08;98947.75;;;-0.88;71.97
15674;BME280;7937;48.090;16.212;2023-02-15T18:21:14;98989.88;;;-0.71;72.07
15674;BME280;7937;48.090;16.212;2023-02-15T18:24:23;98983.28;;;-0.75;71.85
15674;BME280;7937;48.090;16.212;2023-02-15T18:27:27;98984.09;;;-0.85;72.42
15674;BME280;7937;48.090;16.212;2023-02-15T18:30:30;98982.84;;;-0.81;72.71
15674;BME280;7937;48.090;16.212;2023-02-15T18:33:38;98980.94;;;-0.79;72.05
15674;BME280;7937;48.090;16.212;2023-02-15T18:36:44;98975.31;;;-0.84;72.27
15674;BME280;7937;48.090;16.212;2023-02-15T18:39:48;98982.44;;;-0.86;72.22
15674;BME280;7937;48.090;16.212;2023-02-15T18:42:53;98982.72;;;-0.89;72.29
15674;BME280;7937;48.090;16.212;2023-02-15T18:45:58;98983.97;;;-0.93;72.39
15674;BME280;7937;48.090;16.212;2023-02-15T18:49:02;98972.13;;;-0.97;72.39
15674;BME280;7937;48.090;16.212;2023-02-15T18:52:05;98977.63;;;-1.00;72.42
15674;BME280;7937;48.090;16.212;2023-02-15T18:55:17;98977.75;;;-1.01;72.36